Tri-State/Milton J. Ferguson Field
KHTS : now visible

Airfield :











YOU CAN JOIN US ON...

 
LOGIN :

Register | Disclaimer

   EN    FR    IT 

 









Legend :    VFR   Marginal VFR   IFR   Intensive IFR   Very Intensive IFR
Visi :
Ceiling :
>= 8 km
>= 3000ft
5 to 8 km
1000 to 3000 ft
1500m to 5 km
500 to 1000 ft
800 to 1500m
200 to 500 ft
< 800m
< 200 ft
Symbols :   Thunderstorms  Fog  Heavy snow  Heavy precipitations  Wind > 20 kt






- Airport Elevation : 828 ft
- IATA code : HTS


KHTS - Tri-State/Milton J. Ferguson Field

CURRENT METAR :
  • 190358Z 29012G19KT 250V320 10SM SCT027 BKN036 BKN045 08/03 A2989 RMK AO2 T00830033

EXPIRED METARs :
  • 190251Z 28014G22KT 250V310 10SM BKN021 BKN027 OVC037 11/07 A2986 RMK AO2 SLP110 60000 T01110067 55006
  • 190239Z 26010KT 10SM BKN020 BKN027 OVC044 11/08 A2986 RMK AO2 T01110078
  • 190151Z 21011G19KT 10SM SCT023 BKN035 OVC045 11/08 A2985 RMK AO2 RAE0052 SLP110 P0000 T01110078
  • 190121Z 20010G18KT 10SM SCT024 BKN037 OVC070 11/08 A2986 RMK AO2 RAE0052 P0000 T01110078

TAF KHTS
Valid from the 19 at 02:00 until the 20 at 00:00 UTC


190159Z 1902/1924 21012G22KT P6SM OVC035
FM190215 27016G28KT P6SM -SHRA BKN025
FM190300 27011G27KT P6SM BKN020
FM190800 27011G21KT P6SM OVC020
FM192100 28009G15KT P6SM BKN035



MET'MAP, your aeronautical weather chart ! - Copyright ORBIFLY December 2007 - Disclaimer

ORBIFLY MET'MAP TEAM :

Programming & Development : Alexandra Zaïnal
Concept & original design : Baudouin d'Aumeries
Assistance for programming : Marc-Olivier Méhu
Technical & hardware support : Manuel Goepfert

Contact : metmap@orbifly.com




SOURCES & CREDITS :

   NOAA       Earth
Advisory